LKPR/PRG METAR and TAF weather

Enter ICAO airport designator
Station Type Date Time Source
LKPR METAR 2019/05/19 21:00 UTC NOAA

LKPR 192100Z 17002KT CAVOK 16/09 Q1003 NOSIG


Station Type Date Time Source
LKPR Decoded METAR 2019/05/19 21:00 UTC NOAA

Praha / Ruzyne, Czech Republic (LKPR) 50-06N 014-15E 365M
May 19, 2019 - 05:00 PM EDT / 2019.05.19 2100 UTC
Wind: from the S (170 degrees) at 2 MPH (2 KT):0
Visibility: greater than 7 mile(s):0
Temperature: 60 F (16 C)
Dew Point: 48 F (9 C)
Relative Humidity: 63%
Pressure (altimeter): 29.62 in. Hg (1003 hPa)
ob: LKPR 192100Z 17002KT CAVOK 16/09 Q1003 NOSIG
cycle: 21

Station Type Date Time Source
LKPR TAF 2019/05/19 18:35 UTC NOAA

TAF LKPR 191700Z 1918/2100 11006KT 9999 SCT035
TEMPO 2002/2006 3000 BR SCT011
BECMG 2003/2005 VRB02KT
BECMG 2006/2008 BKN015
TEMPO 2008/2016 2500 RA BR OVC009
BECMG 2009/2011 13008KT PROB30
TEMPO 2010/2019 4000 TSRA BKN012 SCT025CB
BECMG 2019/2022 4000 BR SCT013

Example: see airport list